KISMKEYW

Guest
Details From KISM - Kissimmee Gateway
To KEYW - Key West Intl
Flight Number -
Tags Decoded
Created
Modified
Stats Distance 225 nm / 416 km
Max Altitude 0 ft / 0 m
Waypoints 2
Social Downloads 0
Likes 0
Share VATSIM

Download

Looking for another format? Having issues loading an existing format? Contact us
Advertisement - Login to hide

Notes

Decoded

Route

KISM KEYW

ID Type Via Altitude Latitude Longitude Leg Dist Tot Dist Heading (true) Name
O KISM APT - 0 ft / 0 m 28.28684˚ -81.44405˚ - 0 nm - Kissimmee Gateway
O KEYW APT - 0 ft / 0 m 24.55605˚ -81.76677˚ 224 nm 224 nm 185° / 184° -

Altitude Profile

Advertisement - Login to hide

Weather


0- 5 10 15 20 25 30 35+ Temperature / ° C

Clouds and Precipitation
Forecast for 2017-12-13 06:00 UTC. Updated an hour ago

Ground ~20,000 ft ~40,000 ft Winds

KISM

Details ICAO KISM (ISM)
Name Kissimmee Gateway
Region United States
Timezone America/New_York (UTC-5.0)
Stats Elevation 82 ft / 25 m (AMSL)
Location 28.289863° -81.437113°
Runways 2
Magnetic Variation 6.298° W

METAR

KISM 130156Z 31012KT 10SM CLR 14/08 A2998 RMK AO2 SLP156 T01440083

Decode

TAF

KISM 122340Z 1300/1324 28010KT P6SM SKC FM130200 31008KT P6SM SKC FM131300 33006KT P6SM SKC FM131700 29007KT P6SM SKC

Decode

Departure Runways

ID Width Length Bearing (true) Bearing (mag) Surface Threshold Offset Overrun Length
06 150 ft / 46 m 5,000 ft / 1,524 m 57.93° 64.23° Asphalt 0 ft / 0 m 0 ft / 0 m
15 100 ft / 30 m 6,012 ft / 1,833 m 148.21° 154.51° Asphalt 500 ft / 152 m 0 ft / 0 m
24 150 ft / 46 m 5,000 ft / 1,524 m 237.93° 244.23° Asphalt 0 ft / 0 m 485 ft / 148 m
33 100 ft / 30 m 6,012 ft / 1,833 m 328.22° 334.52° Asphalt 0 ft / 0 m 0 ft / 0 m

KEYW

Details ICAO KEYW (EYW)
Name Key West Intl
Region United States
Timezone America/New_York (UTC-5.0)
Stats Elevation 2 ft / 1 m (AMSL)
Location 24.556124° -81.759546°
Runways 1
Magnetic Variation 5.544° W

METAR

KEYW 130153Z AUTO 31010KT 10SM CLR 21/16 A3003 RMK AO2 SLP168 T02110156 $

Decode

TAF

KEYW 122329Z 1300/1324 29009KT P6SM SCT050 FM130100 32012G17KT P6SM SCT050 TEMPO 1301/1303 BKN050 FM131400 36010KT P6SM SCT020

Decode

Destination Runways

ID Width Length Bearing (true) Bearing (mag) Surface Threshold Offset Overrun Length
09 100 ft / 30 m 4,794 ft / 1,461 m 89.38° 94.92° Asphalt 151 ft / 46 m 0 ft / 0 m
27 100 ft / 30 m 4,794 ft / 1,461 m 269.39° 274.93° Asphalt 151 ft / 46 m 0 ft / 0 m

Popular Alternatives